sensor_id;sensor_type;location;lat;lon;timestamp;P1;durP1;ratioP1;P2;durP2;ratioP2
72325;SDS011;60278;47.980;18.780;2022-11-20T00:02:59;28.52;;;12.73;;
72325;SDS011;60278;47.980;18.780;2022-11-20T00:06:30;27.40;;;12.83;;
72325;SDS011;60278;47.980;18.780;2022-11-20T00:10:01;27.33;;;13.40;;
72325;SDS011;60278;47.980;18.780;2022-11-20T00:13:33;26.40;;;12.40;;
72325;SDS011;60278;47.980;18.780;2022-11-20T00:17:04;28.08;;;12.20;;
72325;SDS011;60278;47.980;18.780;2022-11-20T00:20:35;24.00;;;12.17;;
72325;SDS011;60278;47.980;18.780;2022-11-20T00:24:08;27.65;;;12.98;;
72325;SDS011;60278;47.980;18.780;2022-11-20T00:27:40;28.00;;;11.57;;
72325;SDS011;60278;47.980;18.780;2022-11-20T00:31:12;28.00;;;12.80;;
72325;SDS011;60278;47.980;18.780;2022-11-20T00:34:44;22.88;;;11.85;;
72325;SDS011;60278;47.980;18.780;2022-11-20T00:38:15;25.15;;;12.30;;
72325;SDS011;60278;47.980;18.780;2022-11-20T00:41:47;22.77;;;12.07;;
72325;SDS011;60278;47.980;18.780;2022-11-20T00:45:18;23.90;;;11.45;;
72325;SDS011;60278;47.980;18.780;2022-11-20T00:48:49;26.42;;;9.85;;
72325;SDS011;60278;47.980;18.780;2022-11-20T00:52:20;25.60;;;12.68;;
72325;SDS011;60278;47.980;18.780;2022-11-20T00:55:58;27.03;;;11.50;;
72325;SDS011;60278;47.980;18.780;2022-11-20T00:59:31;27.42;;;10.63;;
72325;SDS011;60278;47.980;18.780;2022-11-20T01:03:02;23.85;;;9.77;;
72325;SDS011;60278;47.980;18.780;2022-11-20T01:06:34;27.23;;;10.60;;
72325;SDS011;60278;47.980;18.780;2022-11-20T01:10:07;24.20;;;10.25;;
72325;SDS011;60278;47.980;18.780;2022-11-20T01:13:38;23.05;;;10.50;;
72325;SDS011;60278;47.980;18.780;2022-11-20T01:17:10;23.63;;;9.80;;
72325;SDS011;60278;47.980;18.780;2022-11-20T01:20:41;22.33;;;10.55;;
72325;SDS011;60278;47.980;18.780;2022-11-20T01:24:13;23.15;;;11.15;;
72325;SDS011;60278;47.980;18.780;2022-11-20T01:27:46;21.95;;;11.65;;
72325;SDS011;60278;47.980;18.780;2022-11-20T01:31:18;24.70;;;10.43;;
72325;SDS011;60278;47.980;18.780;2022-11-20T01:34:50;23.40;;;10.98;;
72325;SDS011;60278;47.980;18.780;2022-11-20T01:38:21;20.80;;;9.60;;
72325;SDS011;60278;47.980;18.780;2022-11-20T01:41:53;24.13;;;9.37;;
72325;SDS011;60278;47.980;18.780;2022-11-20T01:53:04;21.63;;;10.53;;
72325;SDS011;60278;47.980;18.780;2022-11-20T01:56:40;24.45;;;11.65;;
72325;SDS011;60278;47.980;18.780;2022-11-20T02:00:16;24.35;;;10.48;;
72325;SDS011;60278;47.980;18.780;2022-11-20T02:03:48;21.90;;;10.35;;
72325;SDS011;60278;47.980;18.780;2022-11-20T02:07:21;23.93;;;11.13;;
72325;SDS011;60278;47.980;18.780;2022-11-20T02:10:54;21.98;;;11.73;;
72325;SDS011;60278;47.980;18.780;2022-11-20T02:14:25;25.15;;;10.82;;
72325;SDS011;60278;47.980;18.780;2022-11-20T02:17:57;26.97;;;11.47;;
72325;SDS011;60278;47.980;18.780;2022-11-20T02:25:08;21.90;;;10.57;;
72325;SDS011;60278;47.980;18.780;2022-11-20T02:28:40;22.10;;;11.00;;
72325;SDS011;60278;47.980;18.780;2022-11-20T02:32:21;25.23;;;11.00;;
72325;SDS011;60278;47.980;18.780;2022-11-20T02:35:57;19.52;;;9.90;;
72325;SDS011;60278;47.980;18.780;2022-11-20T02:39:28;23.30;;;11.10;;
72325;SDS011;60278;47.980;18.780;2022-11-20T02:42:59;21.40;;;9.87;;
72325;SDS011;60278;47.980;18.780;2022-11-20T02:46:30;22.42;;;9.98;;
72325;SDS011;60278;47.980;18.780;2022-11-20T02:50:02;20.02;;;8.85;;
72325;SDS011;60278;47.980;18.780;2022-11-20T02:53:34;19.90;;;9.67;;
72325;SDS011;60278;47.980;18.780;2022-11-20T02:57:05;22.05;;;9.70;;
72325;SDS011;60278;47.980;18.780;2022-11-20T03:00:36;18.20;;;9.18;;
72325;SDS011;60278;47.980;18.780;2022-11-20T03:04:07;18.67;;;9.90;;
72325;SDS011;60278;47.980;18.780;2022-11-20T03:07:38;28.52;;;12.20;;
72325;SDS011;60278;47.980;18.780;2022-11-20T03:11:10;24.58;;;11.90;;
72325;SDS011;60278;47.980;18.780;2022-11-20T03:14:41;24.45;;;10.50;;
72325;SDS011;60278;47.980;18.780;2022-11-20T03:18:12;25.03;;;10.70;;
72325;SDS011;60278;47.980;18.780;2022-11-20T03:21:44;20.88;;;10.77;;
72325;SDS011;60278;47.980;18.780;2022-11-20T03:25:15;31.23;;;11.32;;
72325;SDS011;60278;47.980;18.780;2022-11-20T03:28:47;19.50;;;10.13;;
72325;SDS011;60278;47.980;18.780;2022-11-20T03:32:22;20.25;;;9.60;;
72325;SDS011;60278;47.980;18.780;2022-11-20T03:35:53;20.27;;;9.00;;
72325;SDS011;60278;47.980;18.780;2022-11-20T03:39:24;20.30;;;9.57;;
72325;SDS011;60278;47.980;18.780;2022-11-20T03:42:55;26.70;;;10.10;;
72325;SDS011;60278;47.980;18.780;2022-11-20T03:46:27;24.20;;;9.93;;
72325;SDS011;60278;47.980;18.780;2022-11-20T03:49:58;19.92;;;9.60;;
72325;SDS011;60278;47.980;18.780;2022-11-20T03:53:29;24.03;;;10.17;;
72325;SDS011;60278;47.980;18.780;2022-11-20T03:57:00;25.70;;;11.93;;
72325;SDS011;60278;47.980;18.780;2022-11-20T04:00:31;27.42;;;12.18;;
72325;SDS011;60278;47.980;18.780;2022-11-20T04:04:02;25.10;;;11.20;;
72325;SDS011;60278;47.980;18.780;2022-11-20T04:07:34;19.42;;;8.85;;
72325;SDS011;60278;47.980;18.780;2022-11-20T04:14:40;25.53;;;10.87;;
72325;SDS011;60278;47.980;18.780;2022-11-20T04:18:11;22.70;;;9.77;;
72325;SDS011;60278;47.980;18.780;2022-11-20T04:21:43;23.02;;;10.25;;
72325;SDS011;60278;47.980;18.780;2022-11-20T04:25:14;16.77;;;9.82;;
72325;SDS011;60278;47.980;18.780;2022-11-20T04:28:45;19.87;;;9.60;;
72325;SDS011;60278;47.980;18.780;2022-11-20T04:32:17;21.13;;;10.10;;
72325;SDS011;60278;47.980;18.780;2022-11-20T04:35:48;20.27;;;9.80;;
72325;SDS011;60278;47.980;18.780;2022-11-20T04:39:19;28.33;;;12.93;;
72325;SDS011;60278;47.980;18.780;2022-11-20T04:42:50;23.30;;;11.65;;
72325;SDS011;60278;47.980;18.780;2022-11-20T04:46:21;27.10;;;10.30;;
72325;SDS011;60278;47.980;18.780;2022-11-20T04:49:52;27.57;;;11.80;;
72325;SDS011;60278;47.980;18.780;2022-11-20T04:53:23;24.13;;;12.05;;
72325;SDS011;60278;47.980;18.780;2022-11-20T04:56:54;19.20;;;9.77;;
72325;SDS011;60278;47.980;18.780;2022-11-20T05:00:25;25.45;;;11.27;;
72325;SDS011;60278;47.980;18.780;2022-11-20T05:03:57;25.70;;;10.73;;
72325;SDS011;60278;47.980;18.780;2022-11-20T05:07:28;27.58;;;13.73;;
72325;SDS011;60278;47.980;18.780;2022-11-20T05:11:06;29.45;;;13.48;;
72325;SDS011;60278;47.980;18.780;2022-11-20T05:14:39;27.07;;;11.17;;
72325;SDS011;60278;47.980;18.780;2022-11-20T05:18:10;25.55;;;10.85;;
72325;SDS011;60278;47.980;18.780;2022-11-20T05:21:41;24.48;;;10.80;;
72325;SDS011;60278;47.980;18.780;2022-11-20T05:25:12;19.10;;;11.07;;
72325;SDS011;60278;47.980;18.780;2022-11-20T05:28:43;17.52;;;9.85;;
72325;SDS011;60278;47.980;18.780;2022-11-20T05:32:14;18.92;;;8.93;;
72325;SDS011;60278;47.980;18.780;2022-11-20T05:35:46;26.77;;;10.52;;
72325;SDS011;60278;47.980;18.780;2022-11-20T05:39:17;16.87;;;9.67;;
72325;SDS011;60278;47.980;18.780;2022-11-20T05:42:48;25.55;;;11.05;;
72325;SDS011;60278;47.980;18.780;2022-11-20T05:46:19;23.85;;;11.10;;
72325;SDS011;60278;47.980;18.780;2022-11-20T05:49:51;20.23;;;9.60;;
72325;SDS011;60278;47.980;18.780;2022-11-20T05:53:22;20.48;;;9.93;;
72325;SDS011;60278;47.980;18.780;2022-11-20T05:56:53;22.98;;;10.57;;
72325;SDS011;60278;47.980;18.780;2022-11-20T06:00:24;21.80;;;9.70;;
72325;SDS011;60278;47.980;18.780;2022-11-20T06:03:55;21.20;;;9.77;;
72325;SDS011;60278;47.980;18.780;2022-11-20T06:07:26;19.77;;;11.20;;
72325;SDS011;60278;47.980;18.780;2022-11-20T06:10:57;24.85;;;10.63;;
72325;SDS011;60278;47.980;18.780;2022-11-20T06:14:29;21.77;;;9.90;;
72325;SDS011;60278;47.980;18.780;2022-11-20T06:18:00;25.38;;;9.85;;
72325;SDS011;60278;47.980;18.780;2022-11-20T06:21:31;20.48;;;9.45;;
72325;SDS011;60278;47.980;18.780;2022-11-20T06:25:02;22.20;;;9.10;;
72325;SDS011;60278;47.980;18.780;2022-11-20T06:28:33;17.40;;;9.57;;
72325;SDS011;60278;47.980;18.780;2022-11-20T06:32:04;20.08;;;9.55;;
72325;SDS011;60278;47.980;18.780;2022-11-20T06:35:35;32.10;;;10.83;;
72325;SDS011;60278;47.980;18.780;2022-11-20T06:39:06;21.80;;;10.80;;
72325;SDS011;60278;47.980;18.780;2022-11-20T06:42:37;24.40;;;11.85;;
72325;SDS011;60278;47.980;18.780;2022-11-20T06:46:09;26.38;;;11.40;;
72325;SDS011;60278;47.980;18.780;2022-11-20T06:49:44;33.43;;;16.63;;
72325;SDS011;60278;47.980;18.780;2022-11-20T06:53:15;35.58;;;17.35;;
72325;SDS011;60278;47.980;18.780;2022-11-20T06:56:49;30.13;;;14.68;;
72325;SDS011;60278;47.980;18.780;2022-11-20T07:00:20;28.07;;;13.50;;
72325;SDS011;60278;47.980;18.780;2022-11-20T07:03:51;27.88;;;14.45;;
72325;SDS011;60278;47.980;18.780;2022-11-20T07:07:22;29.67;;;12.90;;
72325;SDS011;60278;47.980;18.780;2022-11-20T07:10:56;30.13;;;13.53;;
72325;SDS011;60278;47.980;18.780;2022-11-20T07:14:28;26.95;;;11.93;;
72325;SDS011;60278;47.980;18.780;2022-11-20T07:17:59;22.95;;;10.63;;
72325;SDS011;60278;47.980;18.780;2022-11-20T07:21:31;27.67;;;11.40;;
72325;SDS011;60278;47.980;18.780;2022-11-20T07:25:02;19.33;;;9.60;;
72325;SDS011;60278;47.980;18.780;2022-11-20T07:28:34;28.08;;;10.25;;
72325;SDS011;60278;47.980;18.780;2022-11-20T07:32:06;22.15;;;10.50;;
72325;SDS011;60278;47.980;18.780;2022-11-20T07:35:37;19.37;;;9.10;;
72325;SDS011;60278;47.980;18.780;2022-11-20T07:39:08;21.98;;;10.88;;
72325;SDS011;60278;47.980;18.780;2022-11-20T07:42:39;24.13;;;10.05;;
72325;SDS011;60278;47.980;18.780;2022-11-20T07:46:10;24.70;;;10.73;;
72325;SDS011;60278;47.980;18.780;2022-11-20T07:49:41;24.42;;;11.30;;
72325;SDS011;60278;47.980;18.780;2022-11-20T07:53:12;26.35;;;11.85;;
72325;SDS011;60278;47.980;18.780;2022-11-20T07:56:44;29.85;;;11.85;;
72325;SDS011;60278;47.980;18.780;2022-11-20T08:00:15;24.07;;;10.53;;
72325;SDS011;60278;47.980;18.780;2022-11-20T08:03:46;22.42;;;10.40;;
72325;SDS011;60278;47.980;18.780;2022-11-20T08:07:17;21.33;;;10.60;;
72325;SDS011;60278;47.980;18.780;2022-11-20T08:10:48;26.43;;;10.40;;
72325;SDS011;60278;47.980;18.780;2022-11-20T08:14:19;27.00;;;10.82;;
72325;SDS011;60278;47.980;18.780;2022-11-20T08:17:50;20.23;;;9.18;;
72325;SDS011;60278;47.980;18.780;2022-11-20T08:21:21;25.23;;;10.50;;
72325;SDS011;60278;47.980;18.780;2022-11-20T08:24:52;23.05;;;11.60;;
72325;SDS011;60278;47.980;18.780;2022-11-20T08:28:23;19.05;;;10.38;;
72325;SDS011;60278;47.980;18.780;2022-11-20T08:31:54;25.88;;;12.88;;
72325;SDS011;60278;47.980;18.780;2022-11-20T08:35:25;30.50;;;12.67;;
72325;SDS011;60278;47.980;18.780;2022-11-20T08:38:56;20.60;;;9.98;;
72325;SDS011;60278;47.980;18.780;2022-11-20T08:42:27;21.80;;;9.70;;
72325;SDS011;60278;47.980;18.780;2022-11-20T08:45:58;22.73;;;10.07;;
72325;SDS011;60278;47.980;18.780;2022-11-20T08:49:29;22.08;;;9.65;;
72325;SDS011;60278;47.980;18.780;2022-11-20T08:53:04;18.98;;;9.25;;
72325;SDS011;60278;47.980;18.780;2022-11-20T08:56:35;19.60;;;9.00;;
72325;SDS011;60278;47.980;18.780;2022-11-20T09:00:07;22.10;;;10.02;;
72325;SDS011;60278;47.980;18.780;2022-11-20T09:03:39;21.15;;;11.32;;
72325;SDS011;60278;47.980;18.780;2022-11-20T09:07:10;19.92;;;9.93;;
72325;SDS011;60278;47.980;18.780;2022-11-20T09:10:41;26.40;;;12.57;;
72325;SDS011;60278;47.980;18.780;2022-11-20T09:14:12;26.40;;;10.68;;
72325;SDS011;60278;47.980;18.780;2022-11-20T09:17:51;25.60;;;12.18;;
72325;SDS011;60278;47.980;18.780;2022-11-20T09:21:22;36.43;;;16.40;;
72325;SDS011;60278;47.980;18.780;2022-11-20T09:24:54;30.38;;;14.55;;
72325;SDS011;60278;47.980;18.780;2022-11-20T09:28:25;23.65;;;9.60;;
72325;SDS011;60278;47.980;18.780;2022-11-20T09:31:57;23.23;;;10.93;;
72325;SDS011;60278;47.980;18.780;2022-11-20T09:35:28;21.15;;;9.93;;
72325;SDS011;60278;47.980;18.780;2022-11-20T09:38:59;23.73;;;10.30;;
72325;SDS011;60278;47.980;18.780;2022-11-20T09:54:17;23.92;;;10.95;;
72325;SDS011;60278;47.980;18.780;2022-11-20T09:57:50;20.67;;;9.13;;
72325;SDS011;60278;47.980;18.780;2022-11-20T10:01:23;20.35;;;10.45;;
72325;SDS011;60278;47.980;18.780;2022-11-20T10:16:53;21.45;;;9.73;;
72325;SDS011;60278;47.980;18.780;2022-11-20T10:32:02;19.65;;;9.68;;
72325;SDS011;60278;47.980;18.780;2022-11-20T10:35:40;27.33;;;12.03;;
72325;SDS011;60278;47.980;18.780;2022-11-20T10:39:18;24.73;;;11.45;;
72325;SDS011;60278;47.980;18.780;2022-11-20T10:43:35;23.55;;;9.88;;
72325;SDS011;60278;47.980;18.780;2022-11-20T10:47:16;22.67;;;9.10;;
72325;SDS011;60278;47.980;18.780;2022-11-20T11:02:01;19.70;;;10.20;;
72325;SDS011;60278;47.980;18.780;2022-11-20T11:09:53;22.90;;;9.63;;
72325;SDS011;60278;47.980;18.780;2022-11-20T11:13:30;21.63;;;10.30;;
72325;SDS011;60278;47.980;18.780;2022-11-20T11:17:01;27.27;;;12.48;;
72325;SDS011;60278;47.980;18.780;2022-11-20T11:20:32;38.83;;;15.73;;
72325;SDS011;60278;47.980;18.780;2022-11-20T11:24:03;23.97;;;10.87;;
72325;SDS011;60278;47.980;18.780;2022-11-20T11:27:35;22.23;;;9.52;;
72325;SDS011;60278;47.980;18.780;2022-11-20T11:31:27;22.77;;;9.10;;
72325;SDS011;60278;47.980;18.780;2022-11-20T11:35:06;19.67;;;9.55;;
72325;SDS011;60278;47.980;18.780;2022-11-20T11:38:50;21.27;;;9.63;;
72325;SDS011;60278;47.980;18.780;2022-11-20T11:42:23;21.13;;;8.60;;
72325;SDS011;60278;47.980;18.780;2022-11-20T11:45:54;16.88;;;9.23;;
72325;SDS011;60278;47.980;18.780;2022-11-20T11:49:26;18.23;;;8.13;;
72325;SDS011;60278;47.980;18.780;2022-11-20T11:53:13;15.32;;;7.55;;
72325;SDS011;60278;47.980;18.780;2022-11-20T11:56:47;19.27;;;8.90;;
72325;SDS011;60278;47.980;18.780;2022-11-20T12:00:19;21.83;;;9.40;;
72325;SDS011;60278;47.980;18.780;2022-11-20T12:07:52;79.63;;;26.17;;
72325;SDS011;60278;47.980;18.780;2022-11-20T12:15:11;25.30;;;10.57;;
72325;SDS011;60278;47.980;18.780;2022-11-20T12:18:51;21.60;;;9.20;;
72325;SDS011;60278;47.980;18.780;2022-11-20T12:22:34;32.85;;;13.88;;
72325;SDS011;60278;47.980;18.780;2022-11-20T12:30:19;20.48;;;8.68;;
72325;SDS011;60278;47.980;18.780;2022-11-20T12:37:48;19.60;;;9.10;;
72325;SDS011;60278;47.980;18.780;2022-11-20T12:41:56;21.00;;;9.75;;
72325;SDS011;60278;47.980;18.780;2022-11-20T12:57:33;19.90;;;10.23;;
72325;SDS011;60278;47.980;18.780;2022-11-20T13:09:10;22.75;;;10.55;;
72325;SDS011;60278;47.980;18.780;2022-11-20T13:12:45;24.38;;;10.32;;
72325;SDS011;60278;47.980;18.780;2022-11-20T13:16:23;27.97;;;10.67;;
72325;SDS011;60278;47.980;18.780;2022-11-20T13:20:05;24.17;;;10.43;;
72325;SDS011;60278;47.980;18.780;2022-11-20T13:23:43;26.55;;;11.48;;
72325;SDS011;60278;47.980;18.780;2022-11-20T13:30:49;22.30;;;10.40;;
72325;SDS011;60278;47.980;18.780;2022-11-20T13:34:25;24.45;;;11.30;;
72325;SDS011;60278;47.980;18.780;2022-11-20T13:38:01;27.13;;;11.18;;
72325;SDS011;60278;47.980;18.780;2022-11-20T13:45:10;21.15;;;11.02;;
72325;SDS011;60278;47.980;18.780;2022-11-20T13:48:56;24.38;;;10.35;;
72325;SDS011;60278;47.980;18.780;2022-11-20T13:56:37;25.73;;;12.38;;
72325;SDS011;60278;47.980;18.780;2022-11-20T14:00:19;26.92;;;12.63;;
72325;SDS011;60278;47.980;18.780;2022-11-20T14:03:52;26.70;;;12.38;;
72325;SDS011;60278;47.980;18.780;2022-11-20T14:07:25;29.63;;;12.17;;
72325;SDS011;60278;47.980;18.780;2022-11-20T14:11:45;27.10;;;13.35;;
72325;SDS011;60278;47.980;18.780;2022-11-20T14:15:00;28.35;;;11.40;;
72325;SDS011;60278;47.980;18.780;2022-11-20T14:18:31;28.73;;;12.23;;
72325;SDS011;60278;47.980;18.780;2022-11-20T14:22:09;25.90;;;12.23;;
72325;SDS011;60278;47.980;18.780;2022-11-20T14:25:49;29.60;;;12.65;;
72325;SDS011;60278;47.980;18.780;2022-11-20T14:29:21;26.90;;;12.70;;
72325;SDS011;60278;47.980;18.780;2022-11-20T14:32:59;27.85;;;12.20;;
72325;SDS011;60278;47.980;18.780;2022-11-20T14:36:32;28.23;;;13.68;;
72325;SDS011;60278;47.980;18.780;2022-11-20T14:40:24;32.85;;;13.82;;
72325;SDS011;60278;47.980;18.780;2022-11-20T14:44:13;33.87;;;14.27;;
72325;SDS011;60278;47.980;18.780;2022-11-20T14:47:45;36.05;;;15.02;;
72325;SDS011;60278;47.980;18.780;2022-11-20T14:51:24;36.65;;;15.73;;
72325;SDS011;60278;47.980;18.780;2022-11-20T14:55:02;29.53;;;14.43;;
72325;SDS011;60278;47.980;18.780;2022-11-20T14:58:33;34.85;;;14.73;;
72325;SDS011;60278;47.980;18.780;2022-11-20T15:02:05;34.78;;;15.05;;
72325;SDS011;60278;47.980;18.780;2022-11-20T15:05:45;35.10;;;13.90;;
72325;SDS011;60278;47.980;18.780;2022-11-20T15:09:18;32.33;;;15.30;;
72325;SDS011;60278;47.980;18.780;2022-11-20T15:12:57;30.02;;;14.25;;
72325;SDS011;60278;47.980;18.780;2022-11-20T15:16:32;32.85;;;14.60;;
72325;SDS011;60278;47.980;18.780;2022-11-20T15:20:03;76.10;;;32.53;;
72325;SDS011;60278;47.980;18.780;2022-11-20T15:23:43;61.45;;;28.02;;
72325;SDS011;60278;47.980;18.780;2022-11-20T15:27:15;44.15;;;18.35;;
72325;SDS011;60278;47.980;18.780;2022-11-20T15:30:46;45.57;;;20.10;;
72325;SDS011;60278;47.980;18.780;2022-11-20T15:34:18;52.45;;;20.33;;
72325;SDS011;60278;47.980;18.780;2022-11-20T15:37:49;120.60;;;53.05;;
72325;SDS011;60278;47.980;18.780;2022-11-20T15:41:20;147.50;;;59.17;;
72325;SDS011;60278;47.980;18.780;2022-11-20T15:44:51;122.40;;;53.83;;
72325;SDS011;60278;47.980;18.780;2022-11-20T15:52:22;96.43;;;41.63;;
72325;SDS011;60278;47.980;18.780;2022-11-20T15:55:53;102.53;;;46.20;;
72325;SDS011;60278;47.980;18.780;2022-11-20T15:59:24;143.90;;;70.85;;
72325;SDS011;60278;47.980;18.780;2022-11-20T16:02:55;74.97;;;34.38;;
72325;SDS011;60278;47.980;18.780;2022-11-20T16:06:26;59.83;;;26.73;;
72325;SDS011;60278;47.980;18.780;2022-11-20T16:09:57;63.75;;;30.70;;
72325;SDS011;60278;47.980;18.780;2022-11-20T16:13:30;54.92;;;27.08;;
72325;SDS011;60278;47.980;18.780;2022-11-20T16:17:20;68.17;;;29.80;;
72325;SDS011;60278;47.980;18.780;2022-11-20T16:21:11;65.53;;;28.67;;
72325;SDS011;60278;47.980;18.780;2022-11-20T16:24:44;63.95;;;29.30;;
72325;SDS011;60278;47.980;18.780;2022-11-20T16:28:15;58.10;;;27.15;;
72325;SDS011;60278;47.980;18.780;2022-11-20T16:31:47;47.07;;;20.43;;
72325;SDS011;60278;47.980;18.780;2022-11-20T16:35:19;41.33;;;20.02;;
72325;SDS011;60278;47.980;18.780;2022-11-20T16:38:53;45.58;;;21.63;;
72325;SDS011;60278;47.980;18.780;2022-11-20T16:42:25;70.93;;;29.30;;
72325;SDS011;60278;47.980;18.780;2022-11-20T16:45:56;108.82;;;46.35;;
72325;SDS011;60278;47.980;18.780;2022-11-20T16:49:28;44.63;;;21.13;;
72325;SDS011;60278;47.980;18.780;2022-11-20T16:52:59;45.17;;;21.27;;
72325;SDS011;60278;47.980;18.780;2022-11-20T16:56:30;48.00;;;20.95;;
72325;SDS011;60278;47.980;18.780;2022-11-20T17:00:01;35.22;;;20.33;;
72325;SDS011;60278;47.980;18.780;2022-11-20T17:03:33;55.60;;;25.42;;
72325;SDS011;60278;47.980;18.780;2022-11-20T17:07:04;64.83;;;26.77;;
72325;SDS011;60278;47.980;18.780;2022-11-20T17:10:35;61.53;;;29.35;;
72325;SDS011;60278;47.980;18.780;2022-11-20T17:14:06;68.00;;;29.15;;
72325;SDS011;60278;47.980;18.780;2022-11-20T17:17:38;58.80;;;25.73;;
72325;SDS011;60278;47.980;18.780;2022-11-20T17:21:09;68.93;;;31.63;;
72325;SDS011;60278;47.980;18.780;2022-11-20T17:24:41;126.43;;;53.30;;
72325;SDS011;60278;47.980;18.780;2022-11-20T17:28:12;119.03;;;54.10;;
72325;SDS011;60278;47.980;18.780;2022-11-20T17:31:43;107.60;;;48.95;;
72325;SDS011;60278;47.980;18.780;2022-11-20T17:35:15;91.80;;;45.97;;
72325;SDS011;60278;47.980;18.780;2022-11-20T17:38:46;75.13;;;36.63;;
72325;SDS011;60278;47.980;18.780;2022-11-20T17:42:17;86.23;;;40.43;;
72325;SDS011;60278;47.980;18.780;2022-11-20T17:45:58;90.40;;;44.58;;
72325;SDS011;60278;47.980;18.780;2022-11-20T17:49:29;88.88;;;42.67;;
72325;SDS011;60278;47.980;18.780;2022-11-20T17:53:01;87.20;;;39.07;;
72325;SDS011;60278;47.980;18.780;2022-11-20T17:56:32;88.47;;;41.47;;
72325;SDS011;60278;47.980;18.780;2022-11-20T18:00:22;86.82;;;39.55;;
72325;SDS011;60278;47.980;18.780;2022-11-20T18:03:55;69.90;;;34.70;;
72325;SDS011;60278;47.980;18.780;2022-11-20T18:07:26;66.07;;;33.55;;
72325;SDS011;60278;47.980;18.780;2022-11-20T18:10:58;66.45;;;29.85;;
72325;SDS011;60278;47.980;18.780;2022-11-20T18:14:29;66.25;;;30.10;;
72325;SDS011;60278;47.980;18.780;2022-11-20T18:18:04;91.50;;;42.53;;
72325;SDS011;60278;47.980;18.780;2022-11-20T18:21:35;119.82;;;57.25;;
72325;SDS011;60278;47.980;18.780;2022-11-20T18:25:06;121.43;;;58.75;;
72325;SDS011;60278;47.980;18.780;2022-11-20T18:28:38;111.03;;;56.57;;
72325;SDS011;60278;47.980;18.780;2022-11-20T18:32:09;110.80;;;53.78;;
72325;SDS011;60278;47.980;18.780;2022-11-20T18:35:40;133.57;;;59.55;;
72325;SDS011;60278;47.980;18.780;2022-11-20T18:39:13;112.23;;;52.00;;
72325;SDS011;60278;47.980;18.780;2022-11-20T18:42:44;58.20;;;31.05;;
72325;SDS011;60278;47.980;18.780;2022-11-20T18:46:34;42.85;;;20.77;;
72325;SDS011;60278;47.980;18.780;2022-11-20T18:50:06;47.25;;;23.80;;
72325;SDS011;60278;47.980;18.780;2022-11-20T18:53:38;44.47;;;19.37;;
72325;SDS011;60278;47.980;18.780;2022-11-20T18:57:09;47.97;;;24.50;;
72325;SDS011;60278;47.980;18.780;2022-11-20T19:00:44;45.63;;;21.73;;
72325;SDS011;60278;47.980;18.780;2022-11-20T19:04:15;41.23;;;19.20;;
72325;SDS011;60278;47.980;18.780;2022-11-20T19:07:47;35.45;;;17.27;;
72325;SDS011;60278;47.980;18.780;2022-11-20T19:11:18;47.58;;;20.48;;
72325;SDS011;60278;47.980;18.780;2022-11-20T19:14:50;36.70;;;16.90;;
72325;SDS011;60278;47.980;18.780;2022-11-20T19:18:21;34.42;;;17.75;;
72325;SDS011;60278;47.980;18.780;2022-11-20T19:21:52;36.40;;;16.80;;
72325;SDS011;60278;47.980;18.780;2022-11-20T19:25:23;33.80;;;15.97;;
72325;SDS011;60278;47.980;18.780;2022-11-20T19:28:54;28.75;;;12.68;;
72325;SDS011;60278;47.980;18.780;2022-11-20T19:32:25;28.05;;;14.68;;
72325;SDS011;60278;47.980;18.780;2022-11-20T19:35:56;28.83;;;12.53;;
72325;SDS011;60278;47.980;18.780;2022-11-20T19:39:28;36.85;;;14.88;;
72325;SDS011;60278;47.980;18.780;2022-11-20T19:42:59;25.92;;;11.88;;
72325;SDS011;60278;47.980;18.780;2022-11-20T19:46:31;45.70;;;21.63;;
72325;SDS011;60278;47.980;18.780;2022-11-20T19:50:04;46.42;;;21.85;;
72325;SDS011;60278;47.980;18.780;2022-11-20T19:53:35;55.22;;;20.63;;
72325;SDS011;60278;47.980;18.780;2022-11-20T19:57:06;51.28;;;24.75;;
72325;SDS011;60278;47.980;18.780;2022-11-20T20:00:37;70.70;;;35.23;;
72325;SDS011;60278;47.980;18.780;2022-11-20T20:04:08;77.70;;;34.00;;
72325;SDS011;60278;47.980;18.780;2022-11-20T20:07:39;81.88;;;42.22;;
72325;SDS011;60278;47.980;18.780;2022-11-20T20:11:15;68.40;;;34.80;;
72325;SDS011;60278;47.980;18.780;2022-11-20T20:14:48;69.75;;;36.13;;
72325;SDS011;60278;47.980;18.780;2022-11-20T20:18:19;61.03;;;31.25;;
72325;SDS011;60278;47.980;18.780;2022-11-20T20:21:50;62.57;;;30.67;;
72325;SDS011;60278;47.980;18.780;2022-11-20T20:25:21;46.42;;;25.02;;
72325;SDS011;60278;47.980;18.780;2022-11-20T20:28:52;46.78;;;23.17;;
72325;SDS011;60278;47.980;18.780;2022-11-20T20:32:23;40.05;;;21.17;;
72325;SDS011;60278;47.980;18.780;2022-11-20T20:35:54;37.93;;;20.43;;
72325;SDS011;60278;47.980;18.780;2022-11-20T20:39:25;46.00;;;23.33;;
72325;SDS011;60278;47.980;18.780;2022-11-20T20:42:58;37.92;;;20.70;;
72325;SDS011;60278;47.980;18.780;2022-11-20T20:46:29;53.87;;;26.30;;
72325;SDS011;60278;47.980;18.780;2022-11-20T20:50:01;49.83;;;25.30;;
72325;SDS011;60278;47.980;18.780;2022-11-20T20:53:34;73.35;;;32.65;;
72325;SDS011;60278;47.980;18.780;2022-11-20T20:57:06;118.63;;;39.27;;
72325;SDS011;60278;47.980;18.780;2022-11-20T21:00:38;117.43;;;35.65;;
72325;SDS011;60278;47.980;18.780;2022-11-20T21:04:09;80.93;;;32.42;;
72325;SDS011;60278;47.980;18.780;2022-11-20T21:07:41;67.15;;;27.77;;
72325;SDS011;60278;47.980;18.780;2022-11-20T21:11:30;57.50;;;25.47;;
72325;SDS011;60278;47.980;18.780;2022-11-20T21:15:01;62.92;;;30.10;;
72325;SDS011;60278;47.980;18.780;2022-11-20T21:18:32;65.75;;;26.48;;
72325;SDS011;60278;47.980;18.780;2022-11-20T21:22:04;44.67;;;22.37;;
72325;SDS011;60278;47.980;18.780;2022-11-20T21:25:36;58.28;;;25.33;;
72325;SDS011;60278;47.980;18.780;2022-11-20T21:29:07;56.58;;;25.77;;
72325;SDS011;60278;47.980;18.780;2022-11-20T21:32:38;48.07;;;25.77;;
72325;SDS011;60278;47.980;18.780;2022-11-20T21:36:16;63.15;;;31.95;;
72325;SDS011;60278;47.980;18.780;2022-11-20T21:39:49;59.67;;;31.20;;
72325;SDS011;60278;47.980;18.780;2022-11-20T21:43:21;42.78;;;24.50;;
72325;SDS011;60278;47.980;18.780;2022-11-20T21:46:52;46.77;;;23.03;;
72325;SDS011;60278;47.980;18.780;2022-11-20T21:50:23;43.65;;;19.67;;
72325;SDS011;60278;47.980;18.780;2022-11-20T21:53:54;36.00;;;17.15;;
72325;SDS011;60278;47.980;18.780;2022-11-20T21:57:26;39.00;;;17.33;;
72325;SDS011;60278;47.980;18.780;2022-11-20T22:00:57;37.70;;;16.10;;
72325;SDS011;60278;47.980;18.780;2022-11-20T22:04:28;43.85;;;19.45;;
72325;SDS011;60278;47.980;18.780;2022-11-20T22:07:59;38.23;;;18.67;;
72325;SDS011;60278;47.980;18.780;2022-11-20T22:11:31;24.98;;;13.70;;
72325;SDS011;60278;47.980;18.780;2022-11-20T22:15:02;23.00;;;11.00;;
72325;SDS011;60278;47.980;18.780;2022-11-20T22:18:33;22.02;;;10.20;;
72325;SDS011;60278;47.980;18.780;2022-11-20T22:22:05;22.20;;;9.93;;
72325;SDS011;60278;47.980;18.780;2022-11-20T22:25:36;39.00;;;17.33;;
72325;SDS011;60278;47.980;18.780;2022-11-20T22:29:07;40.20;;;19.40;;